createdAt,value
2022-11-22T00:04:32.335Z,984
2022-11-22T00:14:32.468Z,984
2022-11-22T00:24:32.319Z,984
2022-11-22T00:34:32.441Z,984
2022-11-22T00:44:32.520Z,984
2022-11-22T00:54:32.464Z,984
2022-11-22T01:04:32.524Z,984
2022-11-22T01:14:32.446Z,984
2022-11-22T01:24:32.514Z,984
2022-11-22T01:34:32.447Z,984
2022-11-22T01:44:32.524Z,984
2022-11-22T01:54:32.450Z,984
2022-11-22T02:04:32.526Z,984
2022-11-22T02:14:32.626Z,984
2022-11-22T02:24:32.510Z,984
2022-11-22T02:34:32.645Z,984
2022-11-22T02:44:32.497Z,984
2022-11-22T02:54:32.613Z,985
2022-11-22T03:04:32.489Z,984
2022-11-22T03:14:32.614Z,984
2022-11-22T03:24:32.687Z,984
2022-11-22T03:34:32.630Z,984
2022-11-22T03:44:32.711Z,984
2022-11-22T03:54:32.617Z,984
2022-11-22T04:04:32.693Z,984
2022-11-22T04:14:32.616Z,984
2022-11-22T04:24:32.694Z,984
2022-11-22T04:34:32.604Z,984
2022-11-22T04:44:32.679Z,984
2022-11-22T04:54:32.608Z,984
2022-11-22T05:04:32.681Z,984
2022-11-22T05:14:32.808Z,984
2022-11-22T05:24:32.670Z,984
2022-11-22T05:34:32.797Z,984
2022-11-22T05:44:32.674Z,984
2022-11-22T05:54:32.810Z,984
2022-11-22T06:04:32.689Z,984
2022-11-22T06:14:32.787Z,984
2022-11-22T06:24:32.868Z,984
2022-11-22T06:34:32.797Z,984
2022-11-22T06:44:32.868Z,984
2022-11-22T06:54:32.800Z,984
2022-11-22T07:04:32.853Z,984
2022-11-22T07:14:32.770Z,985
2022-11-22T07:24:32.835Z,985
2022-11-22T07:34:32.770Z,985
2022-11-22T07:44:32.845Z,985
2022-11-22T07:54:33.069Z,986
2022-11-22T08:04:32.838Z,986
2022-11-22T08:14:33.055Z,986
2022-11-22T08:24:32.832Z,986
2022-11-22T08:34:33.906Z,986
2022-11-22T08:44:32.826Z,986
2022-11-22T08:54:37.420Z,986
2022-11-22T09:04:33.019Z,986
2022-11-22T09:14:33.062Z,986
2022-11-22T09:24:33.016Z,986
2022-11-22T09:34:33.041Z,986
2022-11-22T09:44:33.036Z,986
2022-11-22T09:54:33.042Z,986
2022-11-22T10:04:33.024Z,986
2022-11-22T10:14:33.044Z,986
2022-11-22T10:24:33.029Z,987
2022-11-22T10:34:33.035Z,987
2022-11-22T10:44:33.014Z,987
2022-11-22T10:54:33.232Z,987
2022-11-22T11:04:33.008Z,988
2022-11-22T11:14:33.584Z,988
2022-11-22T11:24:33.176Z,988
2022-11-22T11:34:33.420Z,989
2022-11-22T11:44:33.441Z,989
2022-11-22T11:54:33.237Z,990
2022-11-22T12:04:33.341Z,990
2022-11-22T12:14:48.988Z,990
2022-11-22T12:25:16.807Z,990
2022-11-22T12:34:33.440Z,991
2022-11-22T12:44:33.425Z,991
2022-11-22T12:54:33.509Z,990
2022-11-22T13:04:33.433Z,990
2022-11-22T13:14:33.485Z,990
2022-11-22T13:24:33.507Z,989
2022-11-22T13:34:33.492Z,989
2022-11-22T13:44:33.664Z,990
2022-11-22T13:54:33.854Z,990
2022-11-22T14:04:33.345Z,990
2022-11-22T14:14:33.616Z,989
2022-11-22T14:24:33.406Z,989
2022-11-22T14:34:33.695Z,989
2022-11-22T14:44:33.185Z,989
2022-11-22T14:54:33.303Z,989
2022-11-22T15:09:08.869Z,989
2022-11-22T15:14:33.407Z,989
2022-11-22T16:04:33.535Z,989
2022-11-22T16:14:33.381Z,989
2022-11-22T16:24:33.348Z,989
2022-11-22T16:34:33.375Z,989
2022-11-22T16:44:33.366Z,989
2022-11-22T16:54:33.572Z,989
2022-11-22T17:04:36.626Z,989
2022-11-22T17:14:33.913Z,989
2022-11-22T17:24:33.633Z,989
2022-11-22T17:34:33.796Z,989
2022-11-22T17:44:33.335Z,989
2022-11-22T17:54:33.567Z,989
2022-11-22T18:04:33.814Z,989
2022-11-22T18:14:33.550Z,989
2022-11-22T18:24:33.534Z,989
2022-11-22T18:34:33.573Z,989
2022-11-22T18:44:33.530Z,989
2022-11-22T18:54:33.871Z,989
2022-11-22T19:04:33.788Z,989
2022-11-22T19:14:33.729Z,989
2022-11-22T19:24:33.802Z,989
2022-11-22T19:34:33.726Z,989
2022-11-22T19:44:33.506Z,989
2022-11-22T19:54:33.732Z,989
2022-11-22T20:04:33.499Z,989
2022-11-22T20:14:33.894Z,988
2022-11-22T20:24:33.670Z,988
2022-11-22T20:34:33.974Z,988
2022-11-22T20:44:33.521Z,988
2022-11-22T20:54:33.724Z,988
2022-11-22T21:04:33.825Z,988
2022-11-22T21:14:33.851Z,988
2022-11-22T21:24:33.760Z,988
2022-11-22T21:34:33.821Z,988
2022-11-22T21:44:33.729Z,988
2022-11-22T21:54:33.851Z,988
2022-11-22T22:04:33.710Z,988
2022-11-22T22:14:33.732Z,988
2022-11-22T22:24:33.689Z,988
2022-11-22T22:34:33.911Z,988
2022-11-22T22:44:33.710Z,988
2022-11-22T22:54:33.926Z,988
2022-11-22T23:04:33.691Z,988
2022-11-22T23:14:33.915Z,988
2022-11-22T23:24:33.695Z,987
2022-11-22T23:34:33.904Z,987
2022-11-22T23:44:33.673Z,987
2022-11-22T23:54:33.789Z,987
